KR-0327 weather

Ocean Park Apartments Heliport
Busan, Busan Gwang'yeogsi, South Korea

Public forecast

Using degrees Celsius for public forecast. Weather courtesy of forecast.io.

METAR (pilot weather report)

Closest report is Gimhae International Airport, 10.6 nm (19.7 km) W. Retrieved 2019/08/18 20:27 UTC (20 minutes ago):

RKPK 182027Z 33002KT 3200 BR NSC 25/22 Q1008 RMK CIG200

TAF (pilot weather forecast)

Closest forecast is Gimhae International Airport, 10.6 nm (19.7 km) W. Retrieved 2019/08/18 18:00 UTC (3 hours ago):

TAF RKPK 181700Z 1818/1924 33006KT 4800 BR SCT030 SCT200 TN24/1820Z TX32/1905Z BECMG 1820/1821 3200 SCT030 BECMG 1823/1824 4800 BECMG 1900/1901 18006KT BECMG 1902/1903 9999 NSW